sensor_id;sensor_type;location;lat;lon;timestamp;P1;durP1;ratioP1;P2;durP2;ratioP2
938;SDS011;456;53.584;9.968;2023-10-08T00:00:23;2.13;;;1.63;;
938;SDS011;456;53.584;9.968;2023-10-08T00:03:08;3.30;;;1.40;;
938;SDS011;456;53.584;9.968;2023-10-08T00:05:38;2.17;;;1.50;;
938;SDS011;456;53.584;9.968;2023-10-08T00:08:05;2.10;;;1.27;;
938;SDS011;456;53.584;9.968;2023-10-08T00:10:37;2.70;;;1.40;;
938;SDS011;456;53.584;9.968;2023-10-08T00:13:06;2.20;;;1.60;;
938;SDS011;456;53.584;9.968;2023-10-08T00:15:37;2.50;;;1.50;;
938;SDS011;456;53.584;9.968;2023-10-08T00:18:06;3.53;;;1.23;;
938;SDS011;456;53.584;9.968;2023-10-08T00:20:36;2.27;;;1.47;;
938;SDS011;456;53.584;9.968;2023-10-08T00:23:22;1.60;;;1.10;;
938;SDS011;456;53.584;9.968;2023-10-08T00:25:50;3.27;;;1.63;;
938;SDS011;456;53.584;9.968;2023-10-08T00:28:16;2.00;;;1.53;;
938;SDS011;456;53.584;9.968;2023-10-08T00:30:43;1.40;;;1.30;;
938;SDS011;456;53.584;9.968;2023-10-08T00:33:09;1.87;;;1.40;;
938;SDS011;456;53.584;9.968;2023-10-08T00:35:42;3.70;;;1.40;;
938;SDS011;456;53.584;9.968;2023-10-08T00:38:08;1.30;;;1.20;;
938;SDS011;456;53.584;9.968;2023-10-08T00:40:40;2.53;;;1.87;;
938;SDS011;456;53.584;9.968;2023-10-08T00:43:10;1.73;;;1.30;;
938;SDS011;456;53.584;9.968;2023-10-08T00:45:37;2.17;;;1.33;;
938;SDS011;456;53.584;9.968;2023-10-08T00:48:08;2.27;;;1.40;;
938;SDS011;456;53.584;9.968;2023-10-08T00:50:40;2.13;;;1.50;;
938;SDS011;456;53.584;9.968;2023-10-08T00:53:12;3.43;;;1.60;;
938;SDS011;456;53.584;9.968;2023-10-08T00:55:47;2.77;;;1.70;;
938;SDS011;456;53.584;9.968;2023-10-08T00:58:19;2.00;;;1.50;;
938;SDS011;456;53.584;9.968;2023-10-08T01:00:52;3.53;;;1.60;;
938;SDS011;456;53.584;9.968;2023-10-08T01:03:25;3.17;;;1.20;;
938;SDS011;456;53.584;9.968;2023-10-08T01:05:52;1.40;;;1.30;;
938;SDS011;456;53.584;9.968;2023-10-08T01:08:18;1.70;;;1.30;;
938;SDS011;456;53.584;9.968;2023-10-08T01:10:48;1.77;;;1.47;;
938;SDS011;456;53.584;9.968;2023-10-08T01:13:23;2.07;;;1.70;;
938;SDS011;456;53.584;9.968;2023-10-08T01:15:51;2.87;;;1.83;;
938;SDS011;456;53.584;9.968;2023-10-08T01:18:17;2.03;;;1.37;;
938;SDS011;456;53.584;9.968;2023-10-08T01:20:53;1.73;;;1.53;;
938;SDS011;456;53.584;9.968;2023-10-08T01:23:20;2.83;;;1.47;;
938;SDS011;456;53.584;9.968;2023-10-08T01:25:48;1.83;;;1.40;;
938;SDS011;456;53.584;9.968;2023-10-08T01:28:18;4.03;;;1.50;;
938;SDS011;456;53.584;9.968;2023-10-08T01:30:56;2.50;;;1.60;;
938;SDS011;456;53.584;9.968;2023-10-08T01:33:25;2.90;;;1.40;;
938;SDS011;456;53.584;9.968;2023-10-08T01:36:03;2.60;;;1.73;;
938;SDS011;456;53.584;9.968;2023-10-08T01:38:30;3.03;;;1.83;;
938;SDS011;456;53.584;9.968;2023-10-08T01:40:58;2.67;;;1.47;;
938;SDS011;456;53.584;9.968;2023-10-08T01:43:29;2.10;;;1.27;;
938;SDS011;456;53.584;9.968;2023-10-08T01:45:55;2.40;;;1.60;;
938;SDS011;456;53.584;9.968;2023-10-08T01:48:21;1.80;;;1.40;;
938;SDS011;456;53.584;9.968;2023-10-08T01:50:58;2.17;;;1.50;;
938;SDS011;456;53.584;9.968;2023-10-08T01:53:26;2.83;;;2.10;;
938;SDS011;456;53.584;9.968;2023-10-08T01:55:53;2.13;;;1.47;;
938;SDS011;456;53.584;9.968;2023-10-08T01:58:20;2.07;;;1.70;;
938;SDS011;456;53.584;9.968;2023-10-08T02:00:47;2.47;;;1.87;;
938;SDS011;456;53.584;9.968;2023-10-08T02:03:15;2.00;;;1.50;;
938;SDS011;456;53.584;9.968;2023-10-08T02:05:43;1.57;;;1.47;;
938;SDS011;456;53.584;9.968;2023-10-08T02:08:10;2.73;;;1.27;;
938;SDS011;456;53.584;9.968;2023-10-08T02:10:37;3.10;;;1.40;;
938;SDS011;456;53.584;9.968;2023-10-08T02:13:04;3.40;;;1.53;;
938;SDS011;456;53.584;9.968;2023-10-08T02:15:31;2.13;;;1.53;;
938;SDS011;456;53.584;9.968;2023-10-08T02:17:57;1.97;;;1.50;;
938;SDS011;456;53.584;9.968;2023-10-08T02:20:23;1.53;;;1.23;;
938;SDS011;456;53.584;9.968;2023-10-08T02:22:49;2.50;;;1.50;;
938;SDS011;456;53.584;9.968;2023-10-08T02:25:16;2.70;;;1.50;;
938;SDS011;456;53.584;9.968;2023-10-08T02:27:43;2.73;;;1.33;;
938;SDS011;456;53.584;9.968;2023-10-08T02:30:09;3.67;;;1.30;;
938;SDS011;456;53.584;9.968;2023-10-08T02:32:37;1.97;;;1.50;;
938;SDS011;456;53.584;9.968;2023-10-08T02:35:07;2.43;;;1.57;;
938;SDS011;456;53.584;9.968;2023-10-08T02:37:36;1.93;;;1.47;;
938;SDS011;456;53.584;9.968;2023-10-08T02:40:04;3.10;;;1.37;;
938;SDS011;456;53.584;9.968;2023-10-08T02:42:39;2.63;;;1.77;;
938;SDS011;456;53.584;9.968;2023-10-08T02:45:06;3.40;;;1.67;;
938;SDS011;456;53.584;9.968;2023-10-08T02:47:38;2.50;;;1.80;;
938;SDS011;456;53.584;9.968;2023-10-08T02:50:05;1.60;;;1.20;;
938;SDS011;456;53.584;9.968;2023-10-08T02:52:33;2.47;;;1.47;;
938;SDS011;456;53.584;9.968;2023-10-08T02:55:00;4.37;;;2.10;;
938;SDS011;456;53.584;9.968;2023-10-08T02:57:26;2.63;;;1.47;;
938;SDS011;456;53.584;9.968;2023-10-08T02:59:54;1.70;;;1.30;;
938;SDS011;456;53.584;9.968;2023-10-08T03:02:20;1.87;;;1.20;;
938;SDS011;456;53.584;9.968;2023-10-08T03:04:47;1.80;;;1.47;;
938;SDS011;456;53.584;9.968;2023-10-08T03:07:15;3.10;;;1.70;;
938;SDS011;456;53.584;9.968;2023-10-08T03:09:57;2.70;;;1.57;;
938;SDS011;456;53.584;9.968;2023-10-08T03:12:42;3.03;;;1.47;;
938;SDS011;456;53.584;9.968;2023-10-08T03:15:08;2.03;;;1.40;;
938;SDS011;456;53.584;9.968;2023-10-08T03:17:39;2.27;;;1.60;;
938;SDS011;456;53.584;9.968;2023-10-08T03:20:13;2.20;;;1.40;;
938;SDS011;456;53.584;9.968;2023-10-08T03:23:03;1.70;;;1.40;;
938;SDS011;456;53.584;9.968;2023-10-08T03:25:51;2.97;;;1.73;;
938;SDS011;456;53.584;9.968;2023-10-08T03:28:24;2.37;;;1.67;;
938;SDS011;456;53.584;9.968;2023-10-08T03:30:51;1.83;;;1.53;;
938;SDS011;456;53.584;9.968;2023-10-08T03:33:21;2.37;;;1.43;;
938;SDS011;456;53.584;9.968;2023-10-08T03:35:49;1.97;;;1.30;;
938;SDS011;456;53.584;9.968;2023-10-08T03:38:19;3.80;;;1.57;;
938;SDS011;456;53.584;9.968;2023-10-08T03:41:04;1.90;;;1.47;;
938;SDS011;456;53.584;9.968;2023-10-08T03:43:34;1.80;;;1.60;;
938;SDS011;456;53.584;9.968;2023-10-08T03:46:07;3.67;;;1.60;;
938;SDS011;456;53.584;9.968;2023-10-08T03:48:40;2.30;;;1.50;;
938;SDS011;456;53.584;9.968;2023-10-08T03:51:09;2.47;;;1.50;;
938;SDS011;456;53.584;9.968;2023-10-08T03:53:37;1.87;;;1.50;;
938;SDS011;456;53.584;9.968;2023-10-08T03:56:07;2.03;;;1.23;;
938;SDS011;456;53.584;9.968;2023-10-08T03:58:34;5.00;;;1.73;;
938;SDS011;456;53.584;9.968;2023-10-08T04:01:06;2.00;;;1.40;;
938;SDS011;456;53.584;9.968;2023-10-08T04:03:42;2.70;;;1.87;;
938;SDS011;456;53.584;9.968;2023-10-08T04:06:20;1.60;;;1.50;;
938;SDS011;456;53.584;9.968;2023-10-08T04:09:03;1.57;;;1.47;;
938;SDS011;456;53.584;9.968;2023-10-08T04:11:35;2.33;;;1.33;;
938;SDS011;456;53.584;9.968;2023-10-08T04:14:14;3.33;;;1.57;;
938;SDS011;456;53.584;9.968;2023-10-08T04:16:41;2.80;;;1.40;;
938;SDS011;456;53.584;9.968;2023-10-08T04:19:09;2.17;;;1.50;;
938;SDS011;456;53.584;9.968;2023-10-08T04:21:35;1.90;;;1.40;;
938;SDS011;456;53.584;9.968;2023-10-08T04:24:01;2.30;;;1.57;;
938;SDS011;456;53.584;9.968;2023-10-08T04:26:30;4.40;;;1.17;;
938;SDS011;456;53.584;9.968;2023-10-08T04:28:57;2.47;;;1.67;;
938;SDS011;456;53.584;9.968;2023-10-08T04:31:26;2.23;;;1.73;;
938;SDS011;456;53.584;9.968;2023-10-08T04:33:53;1.40;;;1.30;;
938;SDS011;456;53.584;9.968;2023-10-08T04:36:20;1.93;;;1.00;;
938;SDS011;456;53.584;9.968;2023-10-08T04:38:46;3.27;;;1.60;;
938;SDS011;456;53.584;9.968;2023-10-08T04:41:14;1.10;;;1.00;;
938;SDS011;456;53.584;9.968;2023-10-08T04:43:44;1.70;;;1.30;;
938;SDS011;456;53.584;9.968;2023-10-08T04:46:10;1.50;;;1.20;;
938;SDS011;456;53.584;9.968;2023-10-08T04:49:04;3.63;;;1.50;;
938;SDS011;456;53.584;9.968;2023-10-08T04:51:32;3.20;;;1.30;;
938;SDS011;456;53.584;9.968;2023-10-08T04:54:08;1.80;;;1.47;;
938;SDS011;456;53.584;9.968;2023-10-08T04:56:34;1.43;;;1.10;;
938;SDS011;456;53.584;9.968;2023-10-08T04:59:00;1.70;;;1.37;;
938;SDS011;456;53.584;9.968;2023-10-08T05:01:30;2.30;;;1.30;;
938;SDS011;456;53.584;9.968;2023-10-08T05:04:34;2.33;;;1.30;;
938;SDS011;456;53.584;9.968;2023-10-08T05:07:19;1.50;;;1.40;;
938;SDS011;456;53.584;9.968;2023-10-08T05:09:48;2.27;;;1.30;;
938;SDS011;456;53.584;9.968;2023-10-08T05:12:35;2.43;;;1.43;;
938;SDS011;456;53.584;9.968;2023-10-08T05:15:12;7.90;;;1.47;;
938;SDS011;456;53.584;9.968;2023-10-08T05:17:44;2.40;;;1.37;;
938;SDS011;456;53.584;9.968;2023-10-08T05:20:19;1.30;;;1.10;;
938;SDS011;456;53.584;9.968;2023-10-08T05:23:11;2.50;;;1.43;;
938;SDS011;456;53.584;9.968;2023-10-08T05:25:51;2.33;;;1.53;;
938;SDS011;456;53.584;9.968;2023-10-08T05:28:26;1.50;;;1.10;;
938;SDS011;456;53.584;9.968;2023-10-08T05:30:54;2.40;;;1.40;;
938;SDS011;456;53.584;9.968;2023-10-08T05:33:40;2.20;;;1.47;;
938;SDS011;456;53.584;9.968;2023-10-08T05:36:40;2.03;;;1.40;;
938;SDS011;456;53.584;9.968;2023-10-08T05:39:36;2.23;;;1.50;;
938;SDS011;456;53.584;9.968;2023-10-08T05:42:07;2.30;;;1.40;;
938;SDS011;456;53.584;9.968;2023-10-08T05:44:56;1.90;;;1.33;;
938;SDS011;456;53.584;9.968;2023-10-08T05:47:35;2.17;;;1.30;;
938;SDS011;456;53.584;9.968;2023-10-08T05:50:02;1.47;;;1.00;;
938;SDS011;456;53.584;9.968;2023-10-08T05:52:41;2.60;;;1.40;;
938;SDS011;456;53.584;9.968;2023-10-08T05:55:22;1.70;;;1.30;;
938;SDS011;456;53.584;9.968;2023-10-08T05:58:12;1.93;;;1.23;;
938;SDS011;456;53.584;9.968;2023-10-08T06:00:44;1.77;;;1.10;;
938;SDS011;456;53.584;9.968;2023-10-08T06:03:19;1.77;;;1.37;;
938;SDS011;456;53.584;9.968;2023-10-08T06:06:06;2.93;;;1.40;;
938;SDS011;456;53.584;9.968;2023-10-08T06:08:53;1.10;;;1.00;;
938;SDS011;456;53.584;9.968;2023-10-08T06:11:46;2.20;;;1.30;;
938;SDS011;456;53.584;9.968;2023-10-08T06:14:31;1.57;;;1.20;;
938;SDS011;456;53.584;9.968;2023-10-08T06:17:16;1.40;;;1.03;;
938;SDS011;456;53.584;9.968;2023-10-08T06:20:01;2.03;;;1.30;;
938;SDS011;456;53.584;9.968;2023-10-08T06:22:35;1.63;;;1.13;;
938;SDS011;456;53.584;9.968;2023-10-08T06:25:01;1.60;;;1.20;;
938;SDS011;456;53.584;9.968;2023-10-08T06:27:42;3.40;;;1.33;;
938;SDS011;456;53.584;9.968;2023-10-08T06:30:10;1.83;;;1.17;;
938;SDS011;456;53.584;9.968;2023-10-08T06:32:42;1.43;;;1.27;;
938;SDS011;456;53.584;9.968;2023-10-08T06:35:09;1.77;;;1.30;;
938;SDS011;456;53.584;9.968;2023-10-08T06:37:42;4.37;;;1.50;;
938;SDS011;456;53.584;9.968;2023-10-08T06:40:08;1.20;;;1.10;;
938;SDS011;456;53.584;9.968;2023-10-08T06:42:55;1.53;;;1.07;;
938;SDS011;456;53.584;9.968;2023-10-08T06:45:22;2.30;;;1.37;;
938;SDS011;456;53.584;9.968;2023-10-08T06:47:48;2.50;;;1.00;;
938;SDS011;456;53.584;9.968;2023-10-08T06:50:17;1.83;;;1.10;;
938;SDS011;456;53.584;9.968;2023-10-08T06:52:46;2.70;;;1.37;;
938;SDS011;456;53.584;9.968;2023-10-08T06:55:14;2.10;;;1.20;;
938;SDS011;456;53.584;9.968;2023-10-08T06:57:42;1.50;;;1.30;;
938;SDS011;456;53.584;9.968;2023-10-08T07:00:08;2.50;;;1.27;;
938;SDS011;456;53.584;9.968;2023-10-08T07:02:37;1.67;;;1.30;;
938;SDS011;456;53.584;9.968;2023-10-08T07:05:04;1.90;;;1.17;;
938;SDS011;456;53.584;9.968;2023-10-08T07:07:34;2.73;;;1.27;;
938;SDS011;456;53.584;9.968;2023-10-08T07:10:04;1.23;;;1.13;;
938;SDS011;456;53.584;9.968;2023-10-08T07:12:35;5.73;;;1.20;;
938;SDS011;456;53.584;9.968;2023-10-08T07:15:02;1.33;;;1.13;;
938;SDS011;456;53.584;9.968;2023-10-08T07:17:36;1.43;;;1.10;;
938;SDS011;456;53.584;9.968;2023-10-08T07:20:05;2.23;;;1.43;;
938;SDS011;456;53.584;9.968;2023-10-08T07:22:38;2.07;;;1.17;;
938;SDS011;456;53.584;9.968;2023-10-08T07:25:08;2.87;;;1.67;;
938;SDS011;456;53.584;9.968;2023-10-08T07:27:34;1.87;;;1.60;;
938;SDS011;456;53.584;9.968;2023-10-08T07:30:05;2.47;;;1.47;;
938;SDS011;456;53.584;9.968;2023-10-08T07:32:38;2.07;;;1.03;;
938;SDS011;456;53.584;9.968;2023-10-08T07:35:07;1.27;;;1.07;;
938;SDS011;456;53.584;9.968;2023-10-08T07:37:45;1.40;;;1.27;;
938;SDS011;456;53.584;9.968;2023-10-08T07:40:12;1.87;;;1.13;;
938;SDS011;456;53.584;9.968;2023-10-08T07:42:39;1.73;;;1.20;;
938;SDS011;456;53.584;9.968;2023-10-08T07:45:06;3.23;;;1.50;;
938;SDS011;456;53.584;9.968;2023-10-08T07:47:32;5.13;;;1.67;;
938;SDS011;456;53.584;9.968;2023-10-08T07:49:58;1.43;;;1.20;;
938;SDS011;456;53.584;9.968;2023-10-08T07:52:24;2.67;;;1.27;;
938;SDS011;456;53.584;9.968;2023-10-08T07:54:50;2.37;;;1.60;;
938;SDS011;456;53.584;9.968;2023-10-08T07:57:18;2.70;;;1.60;;
938;SDS011;456;53.584;9.968;2023-10-08T07:59:51;1.90;;;1.40;;
938;SDS011;456;53.584;9.968;2023-10-08T08:02:20;4.03;;;1.43;;
938;SDS011;456;53.584;9.968;2023-10-08T08:04:51;1.57;;;1.23;;
938;SDS011;456;53.584;9.968;2023-10-08T08:07:18;2.07;;;1.03;;
938;SDS011;456;53.584;9.968;2023-10-08T08:09:45;2.67;;;1.20;;
938;SDS011;456;53.584;9.968;2023-10-08T08:12:23;1.20;;;1.10;;
938;SDS011;456;53.584;9.968;2023-10-08T08:14:50;1.27;;;1.13;;
938;SDS011;456;53.584;9.968;2023-10-08T08:17:20;1.10;;;0.90;;
938;SDS011;456;53.584;9.968;2023-10-08T08:19:48;2.70;;;1.30;;
938;SDS011;456;53.584;9.968;2023-10-08T08:22:20;2.20;;;1.40;;
938;SDS011;456;53.584;9.968;2023-10-08T08:24:47;1.73;;;1.10;;
938;SDS011;456;53.584;9.968;2023-10-08T08:27:18;2.50;;;1.10;;
938;SDS011;456;53.584;9.968;2023-10-08T08:29:52;1.33;;;1.10;;
938;SDS011;456;53.584;9.968;2023-10-08T08:32:23;3.87;;;1.30;;
938;SDS011;456;53.584;9.968;2023-10-08T08:34:49;2.57;;;0.97;;
938;SDS011;456;53.584;9.968;2023-10-08T08:37:19;2.00;;;1.20;;
938;SDS011;456;53.584;9.968;2023-10-08T08:39:50;1.07;;;0.90;;
938;SDS011;456;53.584;9.968;2023-10-08T08:42:17;1.30;;;0.80;;
938;SDS011;456;53.584;9.968;2023-10-08T08:44:45;1.60;;;1.03;;
938;SDS011;456;53.584;9.968;2023-10-08T08:47:11;1.93;;;1.10;;
938;SDS011;456;53.584;9.968;2023-10-08T08:49:42;2.07;;;1.27;;
938;SDS011;456;53.584;9.968;2023-10-08T08:52:09;1.50;;;1.00;;
938;SDS011;456;53.584;9.968;2023-10-08T08:54:35;1.23;;;1.13;;
938;SDS011;456;53.584;9.968;2023-10-08T08:57:02;1.47;;;1.27;;
938;SDS011;456;53.584;9.968;2023-10-08T08:59:29;2.17;;;1.37;;
938;SDS011;456;53.584;9.968;2023-10-08T09:01:56;1.50;;;1.30;;
938;SDS011;456;53.584;9.968;2023-10-08T09:04:27;1.30;;;1.10;;
938;SDS011;456;53.584;9.968;2023-10-08T09:06:55;1.80;;;1.03;;
938;SDS011;456;53.584;9.968;2023-10-08T09:09:21;3.00;;;1.40;;
938;SDS011;456;53.584;9.968;2023-10-08T09:11:50;1.50;;;1.13;;
938;SDS011;456;53.584;9.968;2023-10-08T09:14:23;2.33;;;1.00;;
938;SDS011;456;53.584;9.968;2023-10-08T09:16:55;1.73;;;1.10;;
938;SDS011;456;53.584;9.968;2023-10-08T09:19:22;1.63;;;1.20;;
938;SDS011;456;53.584;9.968;2023-10-08T09:22:02;2.87;;;1.20;;
938;SDS011;456;53.584;9.968;2023-10-08T09:24:29;1.67;;;0.93;;
938;SDS011;456;53.584;9.968;2023-10-08T09:26:55;1.17;;;1.03;;
938;SDS011;456;53.584;9.968;2023-10-08T09:29:23;2.70;;;1.20;;
938;SDS011;456;53.584;9.968;2023-10-08T09:31:56;2.00;;;1.30;;
938;SDS011;456;53.584;9.968;2023-10-08T09:34:26;2.00;;;1.10;;
938;SDS011;456;53.584;9.968;2023-10-08T09:36:53;2.37;;;1.20;;
938;SDS011;456;53.584;9.968;2023-10-08T09:39:21;1.70;;;1.20;;
938;SDS011;456;53.584;9.968;2023-10-08T09:41:54;1.10;;;0.97;;
938;SDS011;456;53.584;9.968;2023-10-08T09:44:21;1.87;;;0.80;;
938;SDS011;456;53.584;9.968;2023-10-08T09:46:51;1.10;;;0.87;;
938;SDS011;456;53.584;9.968;2023-10-08T09:49:19;1.53;;;1.10;;
938;SDS011;456;53.584;9.968;2023-10-08T09:51:47;1.50;;;1.00;;
938;SDS011;456;53.584;9.968;2023-10-08T09:54:21;1.80;;;1.17;;
938;SDS011;456;53.584;9.968;2023-10-08T09:56:49;2.50;;;1.40;;
938;SDS011;456;53.584;9.968;2023-10-08T09:59:17;1.33;;;0.90;;
938;SDS011;456;53.584;9.968;2023-10-08T10:01:44;2.93;;;0.90;;
938;SDS011;456;53.584;9.968;2023-10-08T10:04:12;1.10;;;0.90;;
938;SDS011;456;53.584;9.968;2023-10-08T10:06:38;1.17;;;0.77;;
938;SDS011;456;53.584;9.968;2023-10-08T10:09:05;1.93;;;1.30;;
938;SDS011;456;53.584;9.968;2023-10-08T10:11:45;2.23;;;1.47;;
938;SDS011;456;53.584;9.968;2023-10-08T10:14:11;2.10;;;0.97;;
938;SDS011;456;53.584;9.968;2023-10-08T10:16:38;1.83;;;0.90;;
938;SDS011;456;53.584;9.968;2023-10-08T10:19:06;2.20;;;1.20;;
938;SDS011;456;53.584;9.968;2023-10-08T10:21:42;1.00;;;0.87;;
938;SDS011;456;53.584;9.968;2023-10-08T10:24:21;1.30;;;0.90;;
938;SDS011;456;53.584;9.968;2023-10-08T10:26:48;1.40;;;1.00;;
938;SDS011;456;53.584;9.968;2023-10-08T10:29:18;2.50;;;1.07;;
938;SDS011;456;53.584;9.968;2023-10-08T10:34:14;2.37;;;1.00;;
938;SDS011;456;53.584;9.968;2023-10-08T10:36:41;1.53;;;0.97;;
938;SDS011;456;53.584;9.968;2023-10-08T10:39:08;0.90;;;0.80;;
938;SDS011;456;53.584;9.968;2023-10-08T10:41:42;1.60;;;1.00;;
938;SDS011;456;53.584;9.968;2023-10-08T10:44:09;2.00;;;1.00;;
938;SDS011;456;53.584;9.968;2023-10-08T10:46:35;2.37;;;1.17;;
938;SDS011;456;53.584;9.968;2023-10-08T10:49:06;2.27;;;0.97;;
938;SDS011;456;53.584;9.968;2023-10-08T10:51:43;1.63;;;0.87;;
938;SDS011;456;53.584;9.968;2023-10-08T10:54:09;1.50;;;1.00;;
938;SDS011;456;53.584;9.968;2023-10-08T10:56:36;1.27;;;1.00;;
938;SDS011;456;53.584;9.968;2023-10-08T10:59:07;1.03;;;0.80;;
938;SDS011;456;53.584;9.968;2023-10-08T11:01:52;1.27;;;0.80;;
938;SDS011;456;53.584;9.968;2023-10-08T11:04:30;1.30;;;0.90;;
938;SDS011;456;53.584;9.968;2023-10-08T11:06:56;2.47;;;1.10;;
938;SDS011;456;53.584;9.968;2023-10-08T11:09:26;1.53;;;1.00;;
938;SDS011;456;53.584;9.968;2023-10-08T11:12:02;1.47;;;1.00;;
938;SDS011;456;53.584;9.968;2023-10-08T11:14:36;2.20;;;0.93;;
938;SDS011;456;53.584;9.968;2023-10-08T11:17:12;1.90;;;1.20;;
938;SDS011;456;53.584;9.968;2023-10-08T11:19:44;1.33;;;0.90;;
938;SDS011;456;53.584;9.968;2023-10-08T11:22:14;1.37;;;0.90;;
938;SDS011;456;53.584;9.968;2023-10-08T11:24:47;1.23;;;0.77;;
938;SDS011;456;53.584;9.968;2023-10-08T11:27:17;1.53;;;1.00;;
938;SDS011;456;53.584;9.968;2023-10-08T11:30:04;0.80;;;0.77;;
938;SDS011;456;53.584;9.968;2023-10-08T11:32:35;0.97;;;0.73;;
938;SDS011;456;53.584;9.968;2023-10-08T11:35:03;2.60;;;1.03;;
938;SDS011;456;53.584;9.968;2023-10-08T11:37:44;1.63;;;1.00;;
938;SDS011;456;53.584;9.968;2023-10-08T11:40:10;2.20;;;1.13;;
938;SDS011;456;53.584;9.968;2023-10-08T11:42:42;1.33;;;0.83;;
938;SDS011;456;53.584;9.968;2023-10-08T11:45:09;1.93;;;1.03;;
938;SDS011;456;53.584;9.968;2023-10-08T11:47:58;1.80;;;0.80;;
938;SDS011;456;53.584;9.968;2023-10-08T11:50:31;2.63;;;0.90;;
938;SDS011;456;53.584;9.968;2023-10-08T11:52:58;2.47;;;1.00;;
938;SDS011;456;53.584;9.968;2023-10-08T11:55:27;1.93;;;1.20;;
938;SDS011;456;53.584;9.968;2023-10-08T11:57:53;2.40;;;1.07;;
938;SDS011;456;53.584;9.968;2023-10-08T12:00:20;1.67;;;1.10;;
938;SDS011;456;53.584;9.968;2023-10-08T12:02:50;2.43;;;1.20;;
938;SDS011;456;53.584;9.968;2023-10-08T12:05:19;1.80;;;1.10;;
938;SDS011;456;53.584;9.968;2023-10-08T12:07:49;1.70;;;1.00;;
938;SDS011;456;53.584;9.968;2023-10-08T12:10:16;1.33;;;1.00;;
938;SDS011;456;53.584;9.968;2023-10-08T12:12:50;1.50;;;0.90;;
938;SDS011;456;53.584;9.968;2023-10-08T12:15:25;1.00;;;0.70;;
938;SDS011;456;53.584;9.968;2023-10-08T12:18:03;1.77;;;0.93;;
938;SDS011;456;53.584;9.968;2023-10-08T12:21:05;0.83;;;0.60;;
938;SDS011;456;53.584;9.968;2023-10-08T12:23:40;2.30;;;1.07;;
938;SDS011;456;53.584;9.968;2023-10-08T12:26:08;1.23;;;0.90;;
938;SDS011;456;53.584;9.968;2023-10-08T12:28:35;3.20;;;0.90;;
938;SDS011;456;53.584;9.968;2023-10-08T12:31:02;1.50;;;0.83;;
938;SDS011;456;53.584;9.968;2023-10-08T12:33:29;1.20;;;0.83;;
938;SDS011;456;53.584;9.968;2023-10-08T12:35:56;3.10;;;1.20;;
938;SDS011;456;53.584;9.968;2023-10-08T12:38:22;2.73;;;1.00;;
938;SDS011;456;53.584;9.968;2023-10-08T12:40:49;1.27;;;0.80;;
938;SDS011;456;53.584;9.968;2023-10-08T12:43:24;1.50;;;0.97;;
938;SDS011;456;53.584;9.968;2023-10-08T12:45:53;1.83;;;0.90;;
938;SDS011;456;53.584;9.968;2023-10-08T12:48:25;1.50;;;0.97;;
938;SDS011;456;53.584;9.968;2023-10-08T12:50:52;1.20;;;0.90;;
938;SDS011;456;53.584;9.968;2023-10-08T12:53:21;1.27;;;0.80;;
938;SDS011;456;53.584;9.968;2023-10-08T12:56:08;1.80;;;1.37;;
938;SDS011;456;53.584;9.968;2023-10-08T12:58:41;3.50;;;1.37;;
938;SDS011;456;53.584;9.968;2023-10-08T13:01:09;1.20;;;0.90;;
938;SDS011;456;53.584;9.968;2023-10-08T13:03:36;1.27;;;0.90;;
938;SDS011;456;53.584;9.968;2023-10-08T13:06:12;1.80;;;1.20;;
938;SDS011;456;53.584;9.968;2023-10-08T13:08:47;1.33;;;1.00;;
938;SDS011;456;53.584;9.968;2023-10-08T13:11:13;1.40;;;1.00;;
938;SDS011;456;53.584;9.968;2023-10-08T13:13:39;2.20;;;1.10;;
938;SDS011;456;53.584;9.968;2023-10-08T13:16:05;1.43;;;1.10;;
938;SDS011;456;53.584;9.968;2023-10-08T13:18:35;2.30;;;1.10;;
938;SDS011;456;53.584;9.968;2023-10-08T13:21:02;2.07;;;1.00;;
938;SDS011;456;53.584;9.968;2023-10-08T13:23:29;2.60;;;1.30;;
938;SDS011;456;53.584;9.968;2023-10-08T13:25:55;1.80;;;1.20;;
938;SDS011;456;53.584;9.968;2023-10-08T13:28:29;1.40;;;0.80;;
938;SDS011;456;53.584;9.968;2023-10-08T13:30:55;1.27;;;1.00;;
938;SDS011;456;53.584;9.968;2023-10-08T13:33:21;1.17;;;0.93;;
938;SDS011;456;53.584;9.968;2023-10-08T13:35:48;1.50;;;1.30;;
938;SDS011;456;53.584;9.968;2023-10-08T13:38:15;2.30;;;1.13;;
938;SDS011;456;53.584;9.968;2023-10-08T13:40:42;1.80;;;1.20;;
938;SDS011;456;53.584;9.968;2023-10-08T13:43:27;2.03;;;1.20;;
938;SDS011;456;53.584;9.968;2023-10-08T13:45:58;1.60;;;0.90;;
938;SDS011;456;53.584;9.968;2023-10-08T13:48:28;2.90;;;1.00;;
938;SDS011;456;53.584;9.968;2023-10-08T13:50:57;1.40;;;1.20;;
938;SDS011;456;53.584;9.968;2023-10-08T13:53:24;1.23;;;0.97;;
938;SDS011;456;53.584;9.968;2023-10-08T13:55:54;1.13;;;0.87;;
938;SDS011;456;53.584;9.968;2023-10-08T13:58:21;3.07;;;1.20;;
938;SDS011;456;53.584;9.968;2023-10-08T14:00:47;2.87;;;1.10;;
938;SDS011;456;53.584;9.968;2023-10-08T14:03:17;1.73;;;1.10;;
938;SDS011;456;53.584;9.968;2023-10-08T14:05:46;1.20;;;0.80;;
938;SDS011;456;53.584;9.968;2023-10-08T14:08:16;2.00;;;1.30;;
938;SDS011;456;53.584;9.968;2023-10-08T14:10:42;2.60;;;1.40;;
938;SDS011;456;53.584;9.968;2023-10-08T14:13:08;1.57;;;1.20;;
938;SDS011;456;53.584;9.968;2023-10-08T14:15:34;1.67;;;1.30;;
938;SDS011;456;53.584;9.968;2023-10-08T14:18:07;2.17;;;1.20;;
938;SDS011;456;53.584;9.968;2023-10-08T14:20:36;1.10;;;0.83;;
938;SDS011;456;53.584;9.968;2023-10-08T14:23:05;3.97;;;1.23;;
938;SDS011;456;53.584;9.968;2023-10-08T14:25:31;2.20;;;1.10;;
938;SDS011;456;53.584;9.968;2023-10-08T14:27:59;2.60;;;0.70;;
938;SDS011;456;53.584;9.968;2023-10-08T14:30:30;1.33;;;1.20;;
938;SDS011;456;53.584;9.968;2023-10-08T14:32:58;1.67;;;1.00;;
938;SDS011;456;53.584;9.968;2023-10-08T14:35:24;1.03;;;0.93;;
938;SDS011;456;53.584;9.968;2023-10-08T14:38:09;2.37;;;1.23;;
938;SDS011;456;53.584;9.968;2023-10-08T14:40:54;1.50;;;1.00;;
938;SDS011;456;53.584;9.968;2023-10-08T14:43:38;3.37;;;1.20;;
938;SDS011;456;53.584;9.968;2023-10-08T14:46:06;2.20;;;1.17;;
938;SDS011;456;53.584;9.968;2023-10-08T14:48:34;1.70;;;1.17;;
938;SDS011;456;53.584;9.968;2023-10-08T14:51:01;1.13;;;0.90;;
938;SDS011;456;53.584;9.968;2023-10-08T14:53:28;1.83;;;1.00;;
938;SDS011;456;53.584;9.968;2023-10-08T14:55:56;1.63;;;1.10;;
938;SDS011;456;53.584;9.968;2023-10-08T14:58:28;1.67;;;1.07;;
938;SDS011;456;53.584;9.968;2023-10-08T15:00:54;1.63;;;1.13;;
938;SDS011;456;53.584;9.968;2023-10-08T15:03:20;1.70;;;1.10;;
938;SDS011;456;53.584;9.968;2023-10-08T15:05:46;1.97;;;1.30;;
938;SDS011;456;53.584;9.968;2023-10-08T15:08:12;2.93;;;1.40;;
938;SDS011;456;53.584;9.968;2023-10-08T15:10:39;3.27;;;2.80;;
938;SDS011;456;53.584;9.968;2023-10-08T15:13:06;6.50;;;4.20;;
938;SDS011;456;53.584;9.968;2023-10-08T15:15:32;4.80;;;4.33;;
938;SDS011;456;53.584;9.968;2023-10-08T15:17:59;9.07;;;4.27;;
938;SDS011;456;53.584;9.968;2023-10-08T15:20:31;5.23;;;3.27;;
938;SDS011;456;53.584;9.968;2023-10-08T15:22:58;4.30;;;3.73;;
938;SDS011;456;53.584;9.968;2023-10-08T15:25:24;5.43;;;3.63;;
938;SDS011;456;53.584;9.968;2023-10-08T15:27:51;4.07;;;3.67;;
938;SDS011;456;53.584;9.968;2023-10-08T15:30:17;3.80;;;3.40;;
938;SDS011;456;53.584;9.968;2023-10-08T15:32:45;5.03;;;3.10;;
938;SDS011;456;53.584;9.968;2023-10-08T15:35:16;3.93;;;3.10;;
938;SDS011;456;53.584;9.968;2023-10-08T15:37:48;4.83;;;3.60;;
938;SDS011;456;53.584;9.968;2023-10-08T15:40:14;5.27;;;3.47;;
938;SDS011;456;53.584;9.968;2023-10-08T15:42:49;7.47;;;4.50;;
938;SDS011;456;53.584;9.968;2023-10-08T15:45:16;3.70;;;3.40;;
938;SDS011;456;53.584;9.968;2023-10-08T15:53:21;4.10;;;3.70;;
938;SDS011;456;53.584;9.968;2023-10-08T15:55:47;4.83;;;3.60;;
938;SDS011;456;53.584;9.968;2023-10-08T15:58:13;4.20;;;3.53;;
938;SDS011;456;53.584;9.968;2023-10-08T16:00:39;4.20;;;3.80;;
938;SDS011;456;53.584;9.968;2023-10-08T16:03:05;4.83;;;4.10;;
938;SDS011;456;53.584;9.968;2023-10-08T16:05:33;5.00;;;4.20;;
938;SDS011;456;53.584;9.968;2023-10-08T16:07:59;4.60;;;3.53;;
938;SDS011;456;53.584;9.968;2023-10-08T16:10:26;5.53;;;3.50;;
938;SDS011;456;53.584;9.968;2023-10-08T16:12:52;4.60;;;4.20;;
938;SDS011;456;53.584;9.968;2023-10-08T16:15:18;4.20;;;3.43;;